sensor_id;sensor_type;location;lat;lon;timestamp;pressure;altitude;pressure_sealevel;temperature;humidity
76496;BME280;65329;52.544;4.662;2022-12-07T00:01:18;101961.56;;;13.20;67.46
76496;BME280;65329;52.544;4.662;2022-12-07T00:03:46;101954.03;;;13.22;67.36
76496;BME280;65329;52.544;4.662;2022-12-07T00:06:15;101957.97;;;13.19;67.62
76496;BME280;65329;52.544;4.662;2022-12-07T00:08:42;101951.63;;;13.19;67.27
76496;BME280;65329;52.544;4.662;2022-12-07T00:11:15;101947.19;;;13.18;67.43
76496;BME280;65329;52.544;4.662;2022-12-07T00:13:43;101949.75;;;13.19;67.31
76496;BME280;65329;52.544;4.662;2022-12-07T00:16:15;101945.31;;;13.18;67.42
76496;BME280;65329;52.544;4.662;2022-12-07T00:18:43;101951.78;;;13.17;67.16
76496;BME280;65329;52.544;4.662;2022-12-07T00:21:15;101943.75;;;13.16;67.03
76496;BME280;65329;52.544;4.662;2022-12-07T00:23:44;101942.91;;;13.15;67.42
76496;BME280;65329;52.544;4.662;2022-12-07T00:28:51;101931.44;;;13.12;67.32
76496;BME280;65329;52.544;4.662;2022-12-07T00:31:19;101944.94;;;13.13;67.37
76496;BME280;65329;52.544;4.662;2022-12-07T00:33:47;101942.72;;;13.09;67.22
76496;BME280;65329;52.544;4.662;2022-12-07T00:36:17;101957.09;;;13.11;67.10
76496;BME280;65329;52.544;4.662;2022-12-07T00:38:52;101957.09;;;13.11;67.11
76496;BME280;65329;52.544;4.662;2022-12-07T00:41:21;101951.97;;;13.08;67.26
76496;BME280;65329;52.544;4.662;2022-12-07T00:43:48;101944.75;;;13.07;67.04
76496;BME280;65329;52.544;4.662;2022-12-07T00:46:16;101938.44;;;13.06;67.17
76496;BME280;65329;52.544;4.662;2022-12-07T00:48:44;101932.09;;;13.06;67.35
76496;BME280;65329;52.544;4.662;2022-12-07T00:51:12;101930.41;;;13.05;66.91
76496;BME280;65329;52.544;4.662;2022-12-07T00:53:39;101937.75;;;13.04;67.29
76496;BME280;65329;52.544;4.662;2022-12-07T00:56:13;101930.41;;;13.05;67.16
76496;BME280;65329;52.544;4.662;2022-12-07T00:58:40;101935.00;;;13.04;67.25
76496;BME280;65329;52.544;4.662;2022-12-07T01:01:08;101936.72;;;13.05;67.04
76496;BME280;65329;52.544;4.662;2022-12-07T01:03:36;101925.25;;;13.02;67.06
76496;BME280;65329;52.544;4.662;2022-12-07T01:06:04;101926.97;;;13.03;66.96
76496;BME280;65329;52.544;4.662;2022-12-07T01:08:31;101922.53;;;13.02;67.15
76496;BME280;65329;52.544;4.662;2022-12-07T01:11:04;101927.31;;;13.00;67.25
76496;BME280;65329;52.544;4.662;2022-12-07T01:13:32;101927.13;;;13.01;67.10
76496;BME280;65329;52.544;4.662;2022-12-07T01:16:00;101921.09;;;12.98;67.03
76496;BME280;65329;52.544;4.662;2022-12-07T01:18:28;101928.31;;;12.99;66.98
76496;BME280;65329;52.544;4.662;2022-12-07T01:21:03;101925.03;;;12.95;67.01
76496;BME280;65329;52.544;4.662;2022-12-07T01:23:31;101927.59;;;12.97;66.95
76496;BME280;65329;52.544;4.662;2022-12-07T01:26:00;101923.84;;;12.98;66.90
76496;BME280;65329;52.544;4.662;2022-12-07T01:28:27;101927.06;;;12.93;67.21
76496;BME280;65329;52.544;4.662;2022-12-07T01:30:56;101938.72;;;12.95;67.39
76496;BME280;65329;52.544;4.662;2022-12-07T01:33:23;101924.34;;;12.93;66.84
76496;BME280;65329;52.544;4.662;2022-12-07T01:35:50;101914.44;;;12.92;66.91
76496;BME280;65329;52.544;4.662;2022-12-07T01:38:16;101917.31;;;12.91;67.19
76496;BME280;65329;52.544;4.662;2022-12-07T01:40:43;101922.78;;;12.91;67.33
76496;BME280;65329;52.544;4.662;2022-12-07T01:43:17;101923.13;;;12.88;67.36
76496;BME280;65329;52.544;4.662;2022-12-07T01:45:45;101923.13;;;12.88;66.73
76496;BME280;65329;52.544;4.662;2022-12-07T01:48:15;101909.75;;;12.77;67.04
76496;BME280;65329;52.544;4.662;2022-12-07T01:50:45;101917.66;;;12.88;66.85
76496;BME280;65329;52.544;4.662;2022-12-07T01:53:14;101917.66;;;12.88;67.00
76496;BME280;65329;52.544;4.662;2022-12-07T01:55:44;101907.91;;;12.85;66.89
76496;BME280;65329;52.544;4.662;2022-12-07T01:58:13;101903.63;;;12.83;67.07
76496;BME280;65329;52.544;4.662;2022-12-07T02:00:40;101907.38;;;12.82;66.67
76496;BME280;65329;52.544;4.662;2022-12-07T02:03:13;101909.09;;;12.83;66.59
76496;BME280;65329;52.544;4.662;2022-12-07T02:05:43;101909.09;;;12.83;66.88
76496;BME280;65329;52.544;4.662;2022-12-07T02:08:11;101907.56;;;12.80;66.82
76496;BME280;65329;52.544;4.662;2022-12-07T02:10:38;101911.16;;;12.81;67.08
76496;BME280;65329;52.544;4.662;2022-12-07T02:29:07;101887.03;;;12.76;66.95
76496;BME280;65329;52.544;4.662;2022-12-07T02:31:38;101884.47;;;12.75;66.48
76496;BME280;65329;52.544;4.662;2022-12-07T02:34:17;101886.16;;;12.76;66.69
76496;BME280;65329;52.544;4.662;2022-12-07T02:36:52;101883.94;;;12.71;66.61
76496;BME280;65329;52.544;4.662;2022-12-07T02:39:37;101883.06;;;12.71;66.32
76496;BME280;65329;52.544;4.662;2022-12-07T02:42:15;101882.06;;;12.72;66.77
76496;BME280;65329;52.544;4.662;2022-12-07T02:44:45;101883.06;;;12.71;66.61
76496;BME280;65329;52.544;4.662;2022-12-07T02:47:14;101877.59;;;12.71;66.52
76496;BME280;65329;52.544;4.662;2022-12-07T02:49:42;101881.38;;;12.70;66.38
76496;BME280;65329;52.544;4.662;2022-12-07T02:52:09;101881.19;;;12.71;66.48
76496;BME280;65329;52.544;4.662;2022-12-07T02:54:36;101883.06;;;12.71;66.57
76496;BME280;65329;52.544;4.662;2022-12-07T02:57:11;101879.66;;;12.69;66.49
76496;BME280;65329;52.544;4.662;2022-12-07T03:02:28;101896.06;;;12.69;66.46
76496;BME280;65329;52.544;4.662;2022-12-07T03:07:45;101885.47;;;12.66;66.58
76496;BME280;65329;52.544;4.662;2022-12-07T03:10:22;101889.19;;;12.65;66.33
76496;BME280;65329;52.544;4.662;2022-12-07T03:15:32;101875.84;;;12.62;66.56
76496;BME280;65329;52.544;4.662;2022-12-07T03:18:00;101878.59;;;12.62;66.63
76496;BME280;65329;52.544;4.662;2022-12-07T03:20:29;101884.06;;;12.62;66.52
76496;BME280;65329;52.544;4.662;2022-12-07T03:22:57;101882.34;;;12.61;66.25
76496;BME280;65329;52.544;4.662;2022-12-07T03:25:26;101883.22;;;12.61;66.47
76496;BME280;65329;52.544;4.662;2022-12-07T03:27:56;101883.38;;;12.60;66.58
76496;BME280;65329;52.544;4.662;2022-12-07T03:30:42;101877.22;;;12.58;66.03
76496;BME280;65329;52.544;4.662;2022-12-07T03:33:22;101878.91;;;12.59;66.12
76496;BME280;65329;52.544;4.662;2022-12-07T03:38:36;101874.31;;;12.59;66.23
76496;BME280;65329;52.544;4.662;2022-12-07T03:41:09;101870.88;;;12.57;66.21
76496;BME280;65329;52.544;4.662;2022-12-07T03:43:37;101859.09;;;12.57;66.50
76496;BME280;65329;52.544;4.662;2022-12-07T03:46:24;101858.56;;;12.53;65.77
76496;BME280;65329;52.544;4.662;2022-12-07T03:52:00;101862.00;;;12.55;66.15
76496;BME280;65329;52.544;4.662;2022-12-07T03:54:34;101858.41;;;12.55;66.62
76496;BME280;65329;52.544;4.662;2022-12-07T03:57:04;101857.72;;;12.53;65.96
76496;BME280;65329;52.544;4.662;2022-12-07T03:59:32;101858.75;;;12.52;66.52
76496;BME280;65329;52.544;4.662;2022-12-07T04:02:05;101858.75;;;12.52;66.05
76496;BME280;65329;52.544;4.662;2022-12-07T04:04:33;101857.03;;;12.51;66.65
76496;BME280;65329;52.544;4.662;2022-12-07T04:07:00;101852.56;;;12.50;66.48
76496;BME280;65329;52.544;4.662;2022-12-07T04:09:26;101851.75;;;12.49;65.85
76496;BME280;65329;52.544;4.662;2022-12-07T04:11:53;101851.75;;;12.49;66.22
76496;BME280;65329;52.544;4.662;2022-12-07T04:14:20;101857.38;;;12.48;66.35
76496;BME280;65329;52.544;4.662;2022-12-07T04:16:52;101859.25;;;12.47;66.46
76496;BME280;65329;52.544;4.662;2022-12-07T04:19:22;101854.63;;;12.48;66.17
76496;BME280;65329;52.544;4.662;2022-12-07T04:21:49;101861.81;;;12.49;65.77
76496;BME280;65329;52.544;4.662;2022-12-07T04:24:16;101860.75;;;12.42;66.22
76496;BME280;65329;52.544;4.662;2022-12-07T04:26:45;101868.47;;;12.46;66.18
76496;BME280;65329;52.544;4.662;2022-12-07T04:29:13;101869.16;;;12.48;66.05
76496;BME280;65329;52.544;4.662;2022-12-07T04:31:40;101856.34;;;12.49;66.27
76496;BME280;65329;52.544;4.662;2022-12-07T04:34:07;101863.84;;;12.47;66.37
76496;BME280;65329;52.544;4.662;2022-12-07T04:36:34;101854.09;;;12.44;66.25
76496;BME280;65329;52.544;4.662;2022-12-07T04:39:02;101855.63;;;12.47;66.12
76496;BME280;65329;52.544;4.662;2022-12-07T04:41:28;101862.13;;;12.46;66.47
76496;BME280;65329;52.544;4.662;2022-12-07T04:44:03;101853.22;;;12.44;66.29
76496;BME280;65329;52.544;4.662;2022-12-07T04:46:31;101849.66;;;12.43;66.28
76496;BME280;65329;52.544;4.662;2022-12-07T04:48:59;101849.50;;;12.45;66.41
76496;BME280;65329;52.544;4.662;2022-12-07T04:51:27;101837.00;;;12.42;66.30
76496;BME280;65329;52.544;4.662;2022-12-07T04:53:55;101854.09;;;12.44;66.50
76496;BME280;65329;52.544;4.662;2022-12-07T04:56:23;101857.00;;;12.43;66.71
76496;BME280;65329;52.544;4.662;2022-12-07T04:58:52;101857.00;;;12.43;66.76
76496;BME280;65329;52.544;4.662;2022-12-07T05:01:20;101847.94;;;12.42;66.25
76496;BME280;65329;52.544;4.662;2022-12-07T05:03:47;101850.84;;;12.41;66.82
76496;BME280;65329;52.544;4.662;2022-12-07T05:06:14;101853.56;;;12.41;66.65
76496;BME280;65329;52.544;4.662;2022-12-07T05:08:41;101856.28;;;12.41;66.26
76496;BME280;65329;52.544;4.662;2022-12-07T05:11:09;101850.00;;;12.40;66.54
76496;BME280;65329;52.544;4.662;2022-12-07T05:13:36;101842.78;;;12.39;66.73
76496;BME280;65329;52.544;4.662;2022-12-07T05:16:03;101841.63;;;12.42;66.28
76496;BME280;65329;52.544;4.662;2022-12-07T05:18:29;101844.69;;;12.39;66.62
76496;BME280;65329;52.544;4.662;2022-12-07T05:20:56;101844.69;;;12.39;66.67
76496;BME280;65329;52.544;4.662;2022-12-07T05:23:22;101844.69;;;12.39;66.60
76496;BME280;65329;52.544;4.662;2022-12-07T05:25:49;101839.06;;;12.40;67.03
76496;BME280;65329;52.544;4.662;2022-12-07T05:28:16;101830.31;;;12.37;66.58
76496;BME280;65329;52.544;4.662;2022-12-07T05:30:42;101839.22;;;12.39;66.71
76496;BME280;65329;52.544;4.662;2022-12-07T05:33:09;101840.94;;;12.40;66.81
76496;BME280;65329;52.544;4.662;2022-12-07T05:35:36;101840.94;;;12.40;66.98
76496;BME280;65329;52.544;4.662;2022-12-07T05:38:04;101839.22;;;12.39;66.68
76496;BME280;65329;52.544;4.662;2022-12-07T05:40:31;101851.53;;;12.43;66.61
76496;BME280;65329;52.544;4.662;2022-12-07T05:42:57;101841.78;;;12.40;66.65
76496;BME280;65329;52.544;4.662;2022-12-07T05:45:30;101846.75;;;12.45;66.90
76496;BME280;65329;52.544;4.662;2022-12-07T05:47:57;101849.66;;;12.43;67.17
76496;BME280;65329;52.544;4.662;2022-12-07T05:50:24;101846.94;;;12.43;67.11
76496;BME280;65329;52.544;4.662;2022-12-07T05:52:59;101850.34;;;12.45;67.12
76496;BME280;65329;52.544;4.662;2022-12-07T05:55:26;101846.59;;;12.46;66.69
76496;BME280;65329;52.544;4.662;2022-12-07T05:57:53;101842.84;;;12.47;67.08
76496;BME280;65329;52.544;4.662;2022-12-07T06:00:38;101825.72;;;12.37;67.00
76496;BME280;65329;52.544;4.662;2022-12-07T06:03:05;101831.03;;;12.47;67.14
76496;BME280;65329;52.544;4.662;2022-12-07T06:05:32;101838.91;;;12.50;66.88
76496;BME280;65329;52.544;4.662;2022-12-07T06:07:58;101839.94;;;12.49;66.65
76496;BME280;65329;52.544;4.662;2022-12-07T06:10:31;101835.34;;;12.49;66.81
76496;BME280;65329;52.544;4.662;2022-12-07T06:12:58;101833.44;;;12.50;66.68
76496;BME280;65329;52.544;4.662;2022-12-07T06:15:24;101835.16;;;12.51;66.83
76496;BME280;65329;52.544;4.662;2022-12-07T06:17:51;101840.47;;;12.52;67.29
76496;BME280;65329;52.544;4.662;2022-12-07T06:20:17;101829.69;;;12.51;67.11
76496;BME280;65329;52.544;4.662;2022-12-07T06:22:44;101827.63;;;12.53;66.90
76496;BME280;65329;52.544;4.662;2022-12-07T06:25:11;101833.78;;;12.55;66.96
76496;BME280;65329;52.544;4.662;2022-12-07T06:27:37;101828.66;;;12.52;67.19
76496;BME280;65329;52.544;4.662;2022-12-07T06:30:04;101830.19;;;12.54;67.15
76496;BME280;65329;52.544;4.662;2022-12-07T06:32:33;101834.66;;;12.55;67.14
76496;BME280;65329;52.544;4.662;2022-12-07T06:35:00;101835.34;;;12.57;67.20
76496;BME280;65329;52.544;4.662;2022-12-07T06:37:27;101831.75;;;12.57;67.41
76496;BME280;65329;52.544;4.662;2022-12-07T06:39:53;101830.91;;;12.56;67.16
76496;BME280;65329;52.544;4.662;2022-12-07T06:42:20;101833.47;;;12.58;66.98
76496;BME280;65329;52.544;4.662;2022-12-07T06:44:47;101831.59;;;12.58;67.13
76496;BME280;65329;52.544;4.662;2022-12-07T06:47:14;101832.59;;;12.57;67.11
76496;BME280;65329;52.544;4.662;2022-12-07T06:50:00;101839.63;;;12.60;67.49
76496;BME280;65329;52.544;4.662;2022-12-07T06:52:28;101836.91;;;12.60;67.34
76496;BME280;65329;52.544;4.662;2022-12-07T06:54:54;101841.34;;;12.61;67.40
76496;BME280;65329;52.544;4.662;2022-12-07T06:57:21;101840.63;;;12.59;66.84
76496;BME280;65329;52.544;4.662;2022-12-07T06:59:49;101850.41;;;12.61;67.18
76496;BME280;65329;52.544;4.662;2022-12-07T07:02:15;101844.22;;;12.59;67.38
76496;BME280;65329;52.544;4.662;2022-12-07T07:04:42;101860.47;;;12.61;67.06
76496;BME280;65329;52.544;4.662;2022-12-07T07:07:09;101854.13;;;12.60;67.38
76496;BME280;65329;52.544;4.662;2022-12-07T07:09:36;101855.00;;;12.61;67.28
76496;BME280;65329;52.544;4.662;2022-12-07T07:12:03;101864.09;;;12.61;67.53
76496;BME280;65329;52.544;4.662;2022-12-07T07:14:29;101865.78;;;12.62;67.05
76496;BME280;65329;52.544;4.662;2022-12-07T07:16:56;101855.72;;;12.63;67.18
76496;BME280;65329;52.544;4.662;2022-12-07T07:19:23;101853.13;;;12.61;66.94
76496;BME280;65329;52.544;4.662;2022-12-07T07:21:50;101845.78;;;12.62;67.01
76496;BME280;65329;52.544;4.662;2022-12-07T07:24:16;101855.38;;;12.66;66.48
76496;BME280;65329;52.544;4.662;2022-12-07T07:26:43;101854.00;;;12.70;66.39
76496;BME280;65329;52.544;4.662;2022-12-07T07:29:10;101846.84;;;12.69;66.97
76496;BME280;65329;52.544;4.662;2022-12-07T07:31:36;101855.72;;;12.71;66.92
76496;BME280;65329;52.544;4.662;2022-12-07T07:34:04;101865.66;;;12.72;67.02
76496;BME280;65329;52.544;4.662;2022-12-07T07:36:30;101866.31;;;12.74;66.68
76496;BME280;65329;52.544;4.662;2022-12-07T07:38:57;101874.19;;;12.77;66.83
76496;BME280;65329;52.544;4.662;2022-12-07T07:41:24;101864.28;;;12.76;67.02
76496;BME280;65329;52.544;4.662;2022-12-07T07:43:50;101855.75;;;12.79;67.24
76496;BME280;65329;52.544;4.662;2022-12-07T07:46:17;101856.78;;;12.78;67.26
76496;BME280;65329;52.544;4.662;2022-12-07T07:48:44;101851.97;;;12.80;67.27
76496;BME280;65329;52.544;4.662;2022-12-07T07:51:10;101845.50;;;12.81;67.53
76496;BME280;65329;52.544;4.662;2022-12-07T07:53:37;101854.38;;;12.83;67.14
76496;BME280;65329;52.544;4.662;2022-12-07T07:56:04;101861.56;;;12.84;67.15
76496;BME280;65329;52.544;4.662;2022-12-07T07:58:30;101867.72;;;12.86;67.47
76496;BME280;65329;52.544;4.662;2022-12-07T08:01:03;101862.41;;;12.84;67.28
76496;BME280;65329;52.544;4.662;2022-12-07T08:03:30;101875.75;;;12.87;67.38
76496;BME280;65329;52.544;4.662;2022-12-07T08:05:57;101862.94;;;12.88;67.70
76496;BME280;65329;52.544;4.662;2022-12-07T08:08:23;101863.97;;;12.87;67.29
76496;BME280;65329;52.544;4.662;2022-12-07T08:10:50;101858.16;;;12.90;67.23
76496;BME280;65329;52.544;4.662;2022-12-07T08:13:17;101855.25;;;12.91;67.42
76496;BME280;65329;52.544;4.662;2022-12-07T08:15:46;101848.06;;;12.90;67.09
76496;BME280;65329;52.544;4.662;2022-12-07T08:18:14;101869.44;;;12.95;67.25
76496;BME280;65329;52.544;4.662;2022-12-07T08:20:41;101865.69;;;12.96;67.44
76496;BME280;65329;52.544;4.662;2022-12-07T08:23:08;101851.31;;;12.94;67.32
76496;BME280;65329;52.544;4.662;2022-12-07T08:25:35;101860.09;;;13.05;67.25
76496;BME280;65329;52.544;4.662;2022-12-07T08:28:02;101872.22;;;13.03;67.68
76496;BME280;65329;52.544;4.662;2022-12-07T08:30:30;101867.09;;;13.00;67.46
76496;BME280;65329;52.544;4.662;2022-12-07T08:32:56;101868.81;;;13.01;67.86
76496;BME280;65329;52.544;4.662;2022-12-07T08:35:24;101867.09;;;13.00;67.82
76496;BME280;65329;52.544;4.662;2022-12-07T08:37:51;101881.13;;;13.05;67.65
76496;BME280;65329;52.544;4.662;2022-12-07T08:40:18;101872.22;;;13.03;67.56
76496;BME280;65329;52.544;4.662;2022-12-07T08:42:49;101865.91;;;13.02;67.78
76496;BME280;65329;52.544;4.662;2022-12-07T08:45:17;101860.09;;;13.05;68.10
76496;BME280;65329;52.544;4.662;2022-12-07T08:47:56;101853.78;;;13.05;67.65
76496;BME280;65329;52.544;4.662;2022-12-07T08:50:25;101850.34;;;13.03;68.00
76496;BME280;65329;52.544;4.662;2022-12-07T08:52:54;101854.44;;;13.07;68.05
76496;BME280;65329;52.544;4.662;2022-12-07T08:55:22;101845.22;;;13.08;68.09
76496;BME280;65329;52.544;4.662;2022-12-07T08:57:49;101837.84;;;13.08;68.09
76496;BME280;65329;52.544;4.662;2022-12-07T09:00:16;101835.81;;;13.10;67.92
76496;BME280;65329;52.544;4.662;2022-12-07T09:02:46;101830.16;;;13.12;68.08
76496;BME280;65329;52.544;4.662;2022-12-07T09:05:13;101838.38;;;13.12;68.11
76496;BME280;65329;52.544;4.662;2022-12-07T09:07:48;101836.34;;;13.14;68.01
76496;BME280;65329;52.544;4.662;2022-12-07T09:10:17;101844.38;;;13.15;67.96
76496;BME280;65329;52.544;4.662;2022-12-07T09:12:44;101850.34;;;13.19;67.86
76496;BME280;65329;52.544;4.662;2022-12-07T09:15:10;101844.03;;;13.18;67.85
76496;BME280;65329;52.544;4.662;2022-12-07T09:17:37;101845.91;;;13.18;68.39
76496;BME280;65329;52.544;4.662;2022-12-07T09:20:05;101860.28;;;13.20;68.09
76496;BME280;65329;52.544;4.662;2022-12-07T09:22:32;101853.78;;;13.21;68.13
76496;BME280;65329;52.544;4.662;2022-12-07T09:25:00;101855.47;;;13.22;67.85
76496;BME280;65329;52.544;4.662;2022-12-07T09:27:28;101858.75;;;13.25;68.18
76496;BME280;65329;52.544;4.662;2022-12-07T09:29:55;101856.00;;;13.25;68.27
76496;BME280;65329;52.544;4.662;2022-12-07T09:32:22;101861.31;;;13.27;67.98
76496;BME280;65329;52.544;4.662;2022-12-07T09:34:49;101868.47;;;13.28;68.33
76496;BME280;65329;52.544;4.662;2022-12-07T09:37:17;101865.56;;;13.29;67.97
76496;BME280;65329;52.544;4.662;2022-12-07T09:39:44;101863.69;;;13.30;67.92
76496;BME280;65329;52.544;4.662;2022-12-07T09:45:02;101863.38;;;13.33;67.76
76496;BME280;65329;52.544;4.662;2022-12-07T09:47:32;101854.28;;;13.32;68.06
76496;BME280;65329;52.544;4.662;2022-12-07T09:50:10;101841.47;;;13.33;68.04
76496;BME280;65329;52.544;4.662;2022-12-07T09:52:38;101854.09;;;13.34;67.79
76496;BME280;65329;52.544;4.662;2022-12-07T09:55:11;101849.66;;;13.33;68.11
76496;BME280;65329;52.544;4.662;2022-12-07T09:57:38;101857.53;;;13.36;67.99
76496;BME280;65329;52.544;4.662;2022-12-07T10:00:15;101851.38;;;13.34;68.10
76496;BME280;65329;52.544;4.662;2022-12-07T10:02:49;101853.28;;;13.33;67.66
76496;BME280;65329;52.544;4.662;2022-12-07T10:05:21;101846.25;;;13.31;67.96
76496;BME280;65329;52.544;4.662;2022-12-07T10:07:50;101841.81;;;13.30;67.98
76496;BME280;65329;52.544;4.662;2022-12-07T10:10:25;101832.53;;;13.31;67.46
76496;BME280;65329;52.544;4.662;2022-12-07T10:13:13;101834.28;;;13.32;67.75
76496;BME280;65329;52.544;4.662;2022-12-07T10:18:40;101822.47;;;13.31;67.24
76496;BME280;65329;52.544;4.662;2022-12-07T10:23:37;101815.13;;;13.32;67.08
76496;BME280;65329;52.544;4.662;2022-12-07T10:26:26;101816.66;;;13.34;66.96
76496;BME280;65329;52.544;4.662;2022-12-07T10:28:56;101814.75;;;13.35;66.93
76496;BME280;65329;52.544;4.662;2022-12-07T10:31:24;101809.97;;;13.37;67.08
76496;BME280;65329;52.544;4.662;2022-12-07T10:33:55;101815.09;;;13.40;67.30
76496;BME280;65329;52.544;4.662;2022-12-07T10:36:37;101807.75;;;13.40;67.29
76496;BME280;65329;52.544;4.662;2022-12-07T10:39:23;101803.78;;;13.43;67.21
76496;BME280;65329;52.544;4.662;2022-12-07T10:41:54;101816.44;;;13.44;67.07
76496;BME280;65329;52.544;4.662;2022-12-07T10:44:25;101802.75;;;13.44;66.95
76496;BME280;65329;52.544;4.662;2022-12-07T11:00:41;101805.97;;;13.64;64.83
76496;BME280;65329;52.544;4.662;2022-12-07T11:03:25;101802.69;;;13.68;64.62
76496;BME280;65329;52.544;4.662;2022-12-07T11:18:06;101791.31;;;13.95;65.80
76496;BME280;65329;52.544;4.662;2022-12-07T11:26:03;101777.25;;;13.98;66.20
76496;BME280;65329;52.544;4.662;2022-12-07T11:35:34;101764.59;;;13.97;66.59
76496;BME280;65329;52.544;4.662;2022-12-07T11:37:35;101764.25;;;14.00;66.46
76496;BME280;65329;52.544;4.662;2022-12-07T11:45:26;101758.06;;;14.06;66.32
76496;BME280;65329;52.544;4.662;2022-12-07T11:48:06;101759.75;;;14.07;66.01
76496;BME280;65329;52.544;4.662;2022-12-07T11:50:40;101754.25;;;14.07;66.06
76496;BME280;65329;52.544;4.662;2022-12-07T11:56:01;101747.59;;;14.10;66.10
76496;BME280;65329;52.544;4.662;2022-12-07T12:03:55;101751.84;;;14.12;66.36
76496;BME280;65329;52.544;4.662;2022-12-07T12:06:23;101744.69;;;14.11;66.02
76496;BME280;65329;52.544;4.662;2022-12-07T12:09:12;101738.84;;;14.14;65.83
76496;BME280;65329;52.544;4.662;2022-12-07T12:21:00;101710.41;;;14.07;66.34
76496;BME280;65329;52.544;4.662;2022-12-07T12:25:58;101710.41;;;14.07;66.38
76496;BME280;65329;52.544;4.662;2022-12-07T12:28:41;101704.75;;;14.09;66.30
76496;BME280;65329;52.544;4.662;2022-12-07T12:33:53;101704.56;;;14.10;66.34
76496;BME280;65329;52.544;4.662;2022-12-07T12:36:25;101699.59;;;14.14;65.90
76496;BME280;65329;52.544;4.662;2022-12-07T12:46:56;101686.34;;;14.25;65.63
76496;BME280;65329;52.544;4.662;2022-12-07T12:54:24;101682.50;;;14.34;65.71
76496;BME280;65329;52.544;4.662;2022-12-07T12:59:27;101682.94;;;14.23;63.76
76496;BME280;65329;52.544;4.662;2022-12-07T13:02:15;101667.59;;;14.37;65.47
76496;BME280;65329;52.544;4.662;2022-12-07T13:10:30;101663.13;;;14.36;65.60
76496;BME280;65329;52.544;4.662;2022-12-07T13:13:00;101663.41;;;14.26;65.37
76496;BME280;65329;52.544;4.662;2022-12-07T13:18:00;101664.63;;;14.16;65.92
76496;BME280;65329;52.544;4.662;2022-12-07T13:20:52;101648.72;;;14.11;65.52
76496;BME280;65329;52.544;4.662;2022-12-07T13:23:22;101655.22;;;14.10;65.71
76496;BME280;65329;52.544;4.662;2022-12-07T13:26:03;101656.28;;;14.09;65.81
76496;BME280;65329;52.544;4.662;2022-12-07T13:28:35;101651.84;;;14.08;65.85
76496;BME280;65329;52.544;4.662;2022-12-07T13:33:55;101653.56;;;14.01;65.83
76496;BME280;65329;52.544;4.662;2022-12-07T13:36:27;101652.56;;;14.02;65.84
76496;BME280;65329;52.544;4.662;2022-12-07T13:39:00;101650.00;;;14.01;65.58
76496;BME280;65329;52.544;4.662;2022-12-07T13:41:41;101642.59;;;14.01;64.45
76496;BME280;65329;52.544;4.662;2022-12-07T13:44:14;101643.28;;;14.03;64.85
76496;BME280;65329;52.544;4.662;2022-12-07T13:46:49;101641.59;;;14.02;65.57
76496;BME280;65329;52.544;4.662;2022-12-07T13:49:21;101639.88;;;14.01;65.61
76496;BME280;65329;52.544;4.662;2022-12-07T13:51:49;101627.19;;;14.00;65.80
76496;BME280;65329;52.544;4.662;2022-12-07T13:54:16;101621.91;;;13.99;65.66
76496;BME280;65329;52.544;4.662;2022-12-07T13:56:43;101630.63;;;14.02;65.79
76496;BME280;65329;52.544;4.662;2022-12-07T13:59:21;101624.66;;;13.99;65.69
76496;BME280;65329;52.544;4.662;2022-12-07T14:01:50;101627.19;;;14.00;65.93
76496;BME280;65329;52.544;4.662;2022-12-07T14:04:19;101622.59;;;14.01;65.61
76496;BME280;65329;52.544;4.662;2022-12-07T14:06:54;101621.72;;;14.00;65.82
76496;BME280;65329;52.544;4.662;2022-12-07T14:09:25;101622.59;;;14.01;65.82
76496;BME280;65329;52.544;4.662;2022-12-07T14:11:54;101612.81;;;13.98;65.96
76496;BME280;65329;52.544;4.662;2022-12-07T14:14:27;101621.72;;;14.00;65.85
76496;BME280;65329;52.544;4.662;2022-12-07T14:17:22;101607.53;;;13.97;65.91
76496;BME280;65329;52.544;4.662;2022-12-07T14:19:55;101609.25;;;13.98;66.23
76496;BME280;65329;52.544;4.662;2022-12-07T14:27:49;101621.41;;;13.95;65.72
76496;BME280;65329;52.544;4.662;2022-12-07T14:30:18;101607.69;;;13.95;66.01
76496;BME280;65329;52.544;4.662;2022-12-07T14:32:46;101591.25;;;13.95;66.01
76496;BME280;65329;52.544;4.662;2022-12-07T14:35:17;101595.72;;;13.96;65.87
76496;BME280;65329;52.544;4.662;2022-12-07T14:37:46;101587.88;;;13.93;65.96
76496;BME280;65329;52.544;4.662;2022-12-07T14:40:22;101590.59;;;13.93;65.95
76496;BME280;65329;52.544;4.662;2022-12-07T14:43:00;101595.03;;;13.94;65.90
76496;BME280;65329;52.544;4.662;2022-12-07T14:45:28;101593.34;;;13.93;66.07
76496;BME280;65329;52.544;4.662;2022-12-07T14:47:55;101598.47;;;13.96;64.40
76496;BME280;65329;52.544;4.662;2022-12-07T14:50:44;101603.25;;;13.94;65.84
76496;BME280;65329;52.544;4.662;2022-12-07T14:53:36;101604.31;;;13.93;66.04
76496;BME280;65329;52.544;4.662;2022-12-07T14:56:04;101596.91;;;13.94;65.93
76496;BME280;65329;52.544;4.662;2022-12-07T14:58:32;101589.94;;;13.91;66.06
76496;BME280;65329;52.544;4.662;2022-12-07T15:00:59;101586.13;;;13.92;66.10
76496;BME280;65329;52.544;4.662;2022-12-07T15:03:26;101590.59;;;13.93;63.07
76496;BME280;65329;52.544;4.662;2022-12-07T15:05:53;101588.88;;;13.92;63.84
76496;BME280;65329;52.544;4.662;2022-12-07T15:08:20;101591.25;;;13.95;62.02
76496;BME280;65329;52.544;4.662;2022-12-07T15:10:47;101587.50;;;13.96;63.71
76496;BME280;65329;52.544;4.662;2022-12-07T15:13:13;101587.88;;;13.93;65.24
76496;BME280;65329;52.544;4.662;2022-12-07T15:16:13;101582.56;;;13.92;65.96
76496;BME280;65329;52.544;4.662;2022-12-07T15:18:43;101581.03;;;13.89;66.00
76496;BME280;65329;52.544;4.662;2022-12-07T15:21:29;101570.06;;;13.89;65.97
76496;BME280;65329;52.544;4.662;2022-12-07T15:23:56;101570.94;;;13.90;65.98